sensor_id;sensor_type;location;lat;lon;timestamp;temperature;humidity
66670;DHT22;53568;52.164;4.472;2024-02-21T00:01:39;11.53;79.34
66670;DHT22;53568;52.164;4.472;2024-02-21T00:04:04;11.61;79.18
66670;DHT22;53568;52.164;4.472;2024-02-21T00:06:31;11.70;78.82
66670;DHT22;53568;52.164;4.472;2024-02-21T00:08:57;11.70;78.59
66670;DHT22;53568;52.164;4.472;2024-02-21T00:11:23;11.67;78.65
66670;DHT22;53568;52.164;4.472;2024-02-21T00:13:48;11.71;78.52
66670;DHT22;53568;52.164;4.472;2024-02-21T00:16:14;11.63;78.85
66670;DHT22;53568;52.164;4.472;2024-02-21T00:18:41;11.60;78.96
66670;DHT22;53568;52.164;4.472;2024-02-21T00:21:07;11.64;78.62
66670;DHT22;53568;52.164;4.472;2024-02-21T00:23:32;11.57;78.97
66670;DHT22;53568;52.164;4.472;2024-02-21T00:25:58;11.54;79.04
66670;DHT22;53568;52.164;4.472;2024-02-21T00:28:23;11.60;78.88
66670;DHT22;53568;52.164;4.472;2024-02-21T00:30:49;11.60;78.81
66670;DHT22;53568;52.164;4.472;2024-02-21T00:33:16;11.61;78.85
66670;DHT22;53568;52.164;4.472;2024-02-21T00:35:42;11.63;78.69
66670;DHT22;53568;52.164;4.472;2024-02-21T00:38:08;11.51;78.95
66670;DHT22;53568;52.164;4.472;2024-02-21T00:40:34;11.51;78.88
66670;DHT22;53568;52.164;4.472;2024-02-21T00:43:00;11.50;79.25
66670;DHT22;53568;52.164;4.472;2024-02-21T00:45:26;11.41;79.36
66670;DHT22;53568;52.164;4.472;2024-02-21T00:47:51;11.44;79.47
66670;DHT22;53568;52.164;4.472;2024-02-21T00:50:17;11.44;79.45
66670;DHT22;53568;52.164;4.472;2024-02-21T00:52:43;11.46;79.55
66670;DHT22;53568;52.164;4.472;2024-02-21T00:55:09;11.50;79.37
66670;DHT22;53568;52.164;4.472;2024-02-21T00:57:35;11.41;79.49
66670;DHT22;53568;52.164;4.472;2024-02-21T01:00:02;11.37;79.64
66670;DHT22;53568;52.164;4.472;2024-02-21T01:02:28;11.47;79.78
66670;DHT22;53568;52.164;4.472;2024-02-21T01:04:53;11.46;79.78
66670;DHT22;53568;52.164;4.472;2024-02-21T01:07:19;11.44;80.01
66670;DHT22;53568;52.164;4.472;2024-02-21T01:09:44;11.48;79.70
66670;DHT22;53568;52.164;4.472;2024-02-21T01:12:10;11.38;80.12
66670;DHT22;53568;52.164;4.472;2024-02-21T01:14:35;11.43;80.24
66670;DHT22;53568;52.164;4.472;2024-02-21T01:17:01;11.41;80.37
66670;DHT22;53568;52.164;4.472;2024-02-21T01:19:26;11.43;80.41
66670;DHT22;53568;52.164;4.472;2024-02-21T01:21:52;11.38;80.51
66670;DHT22;53568;52.164;4.472;2024-02-21T01:24:17;11.44;80.37
66670;DHT22;53568;52.164;4.472;2024-02-21T01:26:43;11.40;80.38
66670;DHT22;53568;52.164;4.472;2024-02-21T01:29:08;11.44;80.46
66670;DHT22;53568;52.164;4.472;2024-02-21T01:31:34;11.41;80.55
66670;DHT22;53568;52.164;4.472;2024-02-21T01:33:59;11.44;80.64
66670;DHT22;53568;52.164;4.472;2024-02-21T01:36:25;11.46;80.57
66670;DHT22;53568;52.164;4.472;2024-02-21T01:38:50;11.56;80.29
66670;DHT22;53568;52.164;4.472;2024-02-21T01:41:16;11.48;80.43
66670;DHT22;53568;52.164;4.472;2024-02-21T01:43:41;11.46;80.46
66670;DHT22;53568;52.164;4.472;2024-02-21T01:46:08;11.43;80.54
66670;DHT22;53568;52.164;4.472;2024-02-21T01:48:34;11.46;80.41
66670;DHT22;53568;52.164;4.472;2024-02-21T01:51:04;11.43;80.63
66670;DHT22;53568;52.164;4.472;2024-02-21T01:53:34;11.41;80.79
66670;DHT22;53568;52.164;4.472;2024-02-21T01:56:01;11.41;80.52
66670;DHT22;53568;52.164;4.472;2024-02-21T01:58:29;11.44;80.78
66670;DHT22;53568;52.164;4.472;2024-02-21T02:00:56;11.38;80.77
66670;DHT22;53568;52.164;4.472;2024-02-21T02:03:22;11.38;80.85
66670;DHT22;53568;52.164;4.472;2024-02-21T02:05:49;11.34;80.99
66670;DHT22;53568;52.164;4.472;2024-02-21T02:08:16;11.26;81.18
66670;DHT22;53568;52.164;4.472;2024-02-21T02:10:43;11.24;81.18
66670;DHT22;53568;52.164;4.472;2024-02-21T02:13:09;11.30;81.15
66670;DHT22;53568;52.164;4.472;2024-02-21T02:15:46;11.30;81.05
66670;DHT22;53568;52.164;4.472;2024-02-21T02:18:13;11.43;80.81
66670;DHT22;53568;52.164;4.472;2024-02-21T02:20:39;11.41;80.80
66670;DHT22;53568;52.164;4.472;2024-02-21T02:23:11;11.44;80.78
66670;DHT22;53568;52.164;4.472;2024-02-21T02:25:38;11.46;80.58
66670;DHT22;53568;52.164;4.472;2024-02-21T02:28:05;11.46;80.45
66670;DHT22;53568;52.164;4.472;2024-02-21T02:30:37;11.46;80.58
66670;DHT22;53568;52.164;4.472;2024-02-21T02:33:06;11.46;80.44
66670;DHT22;53568;52.164;4.472;2024-02-21T02:35:32;11.48;80.47
66670;DHT22;53568;52.164;4.472;2024-02-21T02:37:58;11.47;80.54
66670;DHT22;53568;52.164;4.472;2024-02-21T02:40:24;11.47;80.41
66670;DHT22;53568;52.164;4.472;2024-02-21T02:42:50;11.37;80.38
66670;DHT22;53568;52.164;4.472;2024-02-21T02:45:17;11.46;80.40
66670;DHT22;53568;52.164;4.472;2024-02-21T02:47:46;11.46;80.49
66670;DHT22;53568;52.164;4.472;2024-02-21T02:50:13;11.48;80.36
66670;DHT22;53568;52.164;4.472;2024-02-21T02:52:39;11.47;80.40
66670;DHT22;53568;52.164;4.472;2024-02-21T02:55:05;11.44;80.62
66670;DHT22;53568;52.164;4.472;2024-02-21T02:57:31;11.51;80.35
66670;DHT22;53568;52.164;4.472;2024-02-21T02:59:57;11.46;80.35
66670;DHT22;53568;52.164;4.472;2024-02-21T03:02:22;11.48;80.31
66670;DHT22;53568;52.164;4.472;2024-02-21T03:04:48;11.43;80.44
66670;DHT22;53568;52.164;4.472;2024-02-21T03:07:14;11.48;80.34
66670;DHT22;53568;52.164;4.472;2024-02-21T03:09:40;11.46;80.33
66670;DHT22;53568;52.164;4.472;2024-02-21T03:12:07;11.41;80.22
66670;DHT22;53568;52.164;4.472;2024-02-21T03:14:32;11.47;80.16
66670;DHT22;53568;52.164;4.472;2024-02-21T03:16:58;11.50;80.02
66670;DHT22;53568;52.164;4.472;2024-02-21T03:19:24;11.44;80.16
66670;DHT22;53568;52.164;4.472;2024-02-21T03:21:51;11.48;79.96
66670;DHT22;53568;52.164;4.472;2024-02-21T03:24:17;11.50;79.83
66670;DHT22;53568;52.164;4.472;2024-02-21T03:26:42;11.56;79.78
66670;DHT22;53568;52.164;4.472;2024-02-21T03:29:08;11.53;79.60
66670;DHT22;53568;52.164;4.472;2024-02-21T03:31:37;11.56;79.58
66670;DHT22;53568;52.164;4.472;2024-02-21T03:34:03;11.54;79.61
66670;DHT22;53568;52.164;4.472;2024-02-21T03:36:28;11.46;79.58
66670;DHT22;53568;52.164;4.472;2024-02-21T03:38:54;11.53;79.49
66670;DHT22;53568;52.164;4.472;2024-02-21T03:41:20;11.58;79.52
66670;DHT22;53568;52.164;4.472;2024-02-21T03:43:45;11.61;79.18
66670;DHT22;53568;52.164;4.472;2024-02-21T03:46:11;11.44;79.49
66670;DHT22;53568;52.164;4.472;2024-02-21T03:48:36;11.56;79.37
66670;DHT22;53568;52.164;4.472;2024-02-21T03:51:02;11.46;79.73
66670;DHT22;53568;52.164;4.472;2024-02-21T03:53:28;11.51;79.50
66670;DHT22;53568;52.164;4.472;2024-02-21T03:55:54;11.51;79.64
66670;DHT22;53568;52.164;4.472;2024-02-21T03:58:20;11.56;79.55
66670;DHT22;53568;52.164;4.472;2024-02-21T04:00:46;11.60;79.27
66670;DHT22;53568;52.164;4.472;2024-02-21T04:03:11;11.67;79.12
66670;DHT22;53568;52.164;4.472;2024-02-21T04:05:37;11.71;79.07
66670;DHT22;53568;52.164;4.472;2024-02-21T04:08:06;11.81;78.78
66670;DHT22;53568;52.164;4.472;2024-02-21T04:10:31;11.75;78.74
66670;DHT22;53568;52.164;4.472;2024-02-21T04:12:57;11.75;78.69
66670;DHT22;53568;52.164;4.472;2024-02-21T04:15:22;11.63;78.87
66670;DHT22;53568;52.164;4.472;2024-02-21T04:17:48;11.63;78.95
66670;DHT22;53568;52.164;4.472;2024-02-21T04:20:16;11.57;79.08
66670;DHT22;53568;52.164;4.472;2024-02-21T04:22:45;11.64;79.04
66670;DHT22;53568;52.164;4.472;2024-02-21T04:25:11;11.61;78.96
66670;DHT22;53568;52.164;4.472;2024-02-21T04:27:38;11.73;78.92
66670;DHT22;53568;52.164;4.472;2024-02-21T04:30:05;11.73;78.73
66670;DHT22;53568;52.164;4.472;2024-02-21T04:32:30;11.70;78.67
66670;DHT22;53568;52.164;4.472;2024-02-21T04:34:56;11.75;78.50
66670;DHT22;53568;52.164;4.472;2024-02-21T04:37:21;11.64;78.76
66670;DHT22;53568;52.164;4.472;2024-02-21T04:39:48;11.63;78.73
66670;DHT22;53568;52.164;4.472;2024-02-21T04:42:14;11.70;78.50
66670;DHT22;53568;52.164;4.472;2024-02-21T04:44:40;11.66;78.39
66670;DHT22;53568;52.164;4.472;2024-02-21T04:47:07;11.58;78.91
66670;DHT22;53568;52.164;4.472;2024-02-21T04:49:33;11.58;78.86
66670;DHT22;53568;52.164;4.472;2024-02-21T04:51:58;11.60;78.76
66670;DHT22;53568;52.164;4.472;2024-02-21T04:54:24;11.67;78.55
66670;DHT22;53568;52.164;4.472;2024-02-21T04:56:49;11.60;78.53
66670;DHT22;53568;52.164;4.472;2024-02-21T04:59:15;11.53;78.93
66670;DHT22;53568;52.164;4.472;2024-02-21T05:01:40;11.56;78.68
66670;DHT22;53568;52.164;4.472;2024-02-21T05:04:06;11.53;78.84
66670;DHT22;53568;52.164;4.472;2024-02-21T05:06:31;11.43;79.04
66670;DHT22;53568;52.164;4.472;2024-02-21T05:08:57;11.50;78.94
66670;DHT22;53568;52.164;4.472;2024-02-21T05:11:23;11.56;78.85
66670;DHT22;53568;52.164;4.472;2024-02-21T05:13:50;11.60;78.73
66670;DHT22;53568;52.164;4.472;2024-02-21T05:16:15;11.61;78.69
66670;DHT22;53568;52.164;4.472;2024-02-21T05:18:41;11.57;78.40
66670;DHT22;53568;52.164;4.472;2024-02-21T05:21:08;11.70;78.27
66670;DHT22;53568;52.164;4.472;2024-02-21T05:23:33;11.66;78.12
66670;DHT22;53568;52.164;4.472;2024-02-21T05:25:59;11.67;78.19
66670;DHT22;53568;52.164;4.472;2024-02-21T05:28:25;11.64;78.00
66670;DHT22;53568;52.164;4.472;2024-02-21T05:30:50;11.74;77.61
66670;DHT22;53568;52.164;4.472;2024-02-21T05:33:16;11.68;77.27
66670;DHT22;53568;52.164;4.472;2024-02-21T05:35:47;11.58;77.68
66670;DHT22;53568;52.164;4.472;2024-02-21T05:38:16;11.51;78.01
66670;DHT22;53568;52.164;4.472;2024-02-21T05:40:44;11.53;77.77
66670;DHT22;53568;52.164;4.472;2024-02-21T05:43:10;11.43;77.98
66670;DHT22;53568;52.164;4.472;2024-02-21T05:45:36;11.28;78.56
66670;DHT22;53568;52.164;4.472;2024-02-21T05:48:03;11.30;78.90
66670;DHT22;53568;52.164;4.472;2024-02-21T05:50:29;11.22;79.02
66670;DHT22;53568;52.164;4.472;2024-02-21T05:52:55;11.14;79.31
66670;DHT22;53568;52.164;4.472;2024-02-21T05:55:21;11.20;79.20
66670;DHT22;53568;52.164;4.472;2024-02-21T05:57:47;11.23;78.85
66670;DHT22;53568;52.164;4.472;2024-02-21T06:00:13;11.17;78.99
66670;DHT22;53568;52.164;4.472;2024-02-21T06:02:39;11.14;78.97
66670;DHT22;53568;52.164;4.472;2024-02-21T06:05:06;11.03;79.49
66670;DHT22;53568;52.164;4.472;2024-02-21T06:07:33;11.12;79.53
66670;DHT22;53568;52.164;4.472;2024-02-21T06:09:59;11.22;79.08
66670;DHT22;53568;52.164;4.472;2024-02-21T06:12:25;11.13;79.17
66670;DHT22;53568;52.164;4.472;2024-02-21T06:14:52;11.23;79.08
66670;DHT22;53568;52.164;4.472;2024-02-21T06:17:17;11.24;79.08
66670;DHT22;53568;52.164;4.472;2024-02-21T06:19:43;11.30;78.91
66670;DHT22;53568;52.164;4.472;2024-02-21T06:22:09;11.40;78.39
66670;DHT22;53568;52.164;4.472;2024-02-21T06:24:35;11.34;78.14
66670;DHT22;53568;52.164;4.472;2024-02-21T06:27:03;11.31;78.37
66670;DHT22;53568;52.164;4.472;2024-02-21T06:29:28;11.19;78.62
66670;DHT22;53568;52.164;4.472;2024-02-21T06:31:54;11.20;78.67
66670;DHT22;53568;52.164;4.472;2024-02-21T06:34:19;11.24;78.75
66670;DHT22;53568;52.164;4.472;2024-02-21T06:36:45;11.27;78.51
66670;DHT22;53568;52.164;4.472;2024-02-21T06:39:11;11.28;78.62
66670;DHT22;53568;52.164;4.472;2024-02-21T06:41:37;11.28;78.41
66670;DHT22;53568;52.164;4.472;2024-02-21T06:44:03;11.30;78.06
66670;DHT22;53568;52.164;4.472;2024-02-21T06:46:29;11.20;78.50
66670;DHT22;53568;52.164;4.472;2024-02-21T06:48:55;11.24;78.60
66670;DHT22;53568;52.164;4.472;2024-02-21T06:51:26;11.19;78.57
66670;DHT22;53568;52.164;4.472;2024-02-21T06:53:51;11.19;78.72
66670;DHT22;53568;52.164;4.472;2024-02-21T06:56:17;11.07;79.02
66670;DHT22;53568;52.164;4.472;2024-02-21T06:58:42;11.04;79.23
66670;DHT22;53568;52.164;4.472;2024-02-21T07:01:08;11.10;79.24
66670;DHT22;53568;52.164;4.472;2024-02-21T07:03:34;11.22;78.88
66670;DHT22;53568;52.164;4.472;2024-02-21T07:06:00;11.27;78.73
66670;DHT22;53568;52.164;4.472;2024-02-21T07:08:25;11.22;78.86
66670;DHT22;53568;52.164;4.472;2024-02-21T07:10:51;11.16;79.11
66670;DHT22;53568;52.164;4.472;2024-02-21T07:13:17;11.24;78.94
66670;DHT22;53568;52.164;4.472;2024-02-21T07:15:43;11.19;79.05
66670;DHT22;53568;52.164;4.472;2024-02-21T07:18:08;11.24;79.03
66670;DHT22;53568;52.164;4.472;2024-02-21T07:20:34;11.28;78.77
66670;DHT22;53568;52.164;4.472;2024-02-21T07:23:02;11.27;78.94
66670;DHT22;53568;52.164;4.472;2024-02-21T07:25:28;11.27;78.77
66670;DHT22;53568;52.164;4.472;2024-02-21T07:27:53;11.22;78.77
66670;DHT22;53568;52.164;4.472;2024-02-21T07:30:19;11.19;78.86
66670;DHT22;53568;52.164;4.472;2024-02-21T07:32:44;11.06;79.34
66670;DHT22;53568;52.164;4.472;2024-02-21T07:35:10;11.13;79.28
66670;DHT22;53568;52.164;4.472;2024-02-21T07:37:37;11.12;79.15
66670;DHT22;53568;52.164;4.472;2024-02-21T07:40:06;11.09;79.27
66670;DHT22;53568;52.164;4.472;2024-02-21T07:42:32;11.03;79.59
66670;DHT22;53568;52.164;4.472;2024-02-21T07:44:58;11.03;79.47
66670;DHT22;53568;52.164;4.472;2024-02-21T07:47:23;10.97;79.56
66670;DHT22;53568;52.164;4.472;2024-02-21T07:49:49;11.02;79.28
66670;DHT22;53568;52.164;4.472;2024-02-21T07:52:15;10.95;79.47
66670;DHT22;53568;52.164;4.472;2024-02-21T07:54:41;10.93;79.52
66670;DHT22;53568;52.164;4.472;2024-02-21T07:57:07;10.83;79.72
66670;DHT22;53568;52.164;4.472;2024-02-21T07:59:33;10.86;79.82
66670;DHT22;53568;52.164;4.472;2024-02-21T08:01:58;10.82;79.90
66670;DHT22;53568;52.164;4.472;2024-02-21T08:04:24;10.83;80.23
66670;DHT22;53568;52.164;4.472;2024-02-21T08:06:56;10.90;80.01
66670;DHT22;53568;52.164;4.472;2024-02-21T08:09:22;10.95;79.80
66670;DHT22;53568;52.164;4.472;2024-02-21T08:11:49;11.02;79.50
66670;DHT22;53568;52.164;4.472;2024-02-21T08:14:14;11.04;79.49
66670;DHT22;53568;52.164;4.472;2024-02-21T08:16:42;11.12;79.51
66670;DHT22;53568;52.164;4.472;2024-02-21T08:19:08;11.13;79.32
66670;DHT22;53568;52.164;4.472;2024-02-21T08:21:33;11.26;78.95
66670;DHT22;53568;52.164;4.472;2024-02-21T08:23:59;11.28;78.71
66670;DHT22;53568;52.164;4.472;2024-02-21T08:26:24;11.07;79.16
66670;DHT22;53568;52.164;4.472;2024-02-21T08:28:53;11.26;79.19
66670;DHT22;53568;52.164;4.472;2024-02-21T08:31:19;11.14;79.15
66670;DHT22;53568;52.164;4.472;2024-02-21T08:33:45;11.16;79.41
66670;DHT22;53568;52.164;4.472;2024-02-21T08:36:18;11.20;79.25
66670;DHT22;53568;52.164;4.472;2024-02-21T08:38:45;11.17;79.36
66670;DHT22;53568;52.164;4.472;2024-02-21T08:41:10;11.23;79.34
66670;DHT22;53568;52.164;4.472;2024-02-21T08:43:36;11.20;79.09
66670;DHT22;53568;52.164;4.472;2024-02-21T08:46:02;11.26;79.14
66670;DHT22;53568;52.164;4.472;2024-02-21T08:48:27;11.30;78.95
66670;DHT22;53568;52.164;4.472;2024-02-21T08:50:53;11.30;78.87
66670;DHT22;53568;52.164;4.472;2024-02-21T08:53:20;11.37;78.58
66670;DHT22;53568;52.164;4.472;2024-02-21T08:55:46;11.28;78.77
66670;DHT22;53568;52.164;4.472;2024-02-21T08:58:11;11.19;78.55
66670;DHT22;53568;52.164;4.472;2024-02-21T09:00:37;11.19;78.78
66670;DHT22;53568;52.164;4.472;2024-02-21T09:03:03;10.97;79.25
66670;DHT22;53568;52.164;4.472;2024-02-21T09:05:28;11.03;79.10
66670;DHT22;53568;52.164;4.472;2024-02-21T09:07:54;11.14;79.12
66670;DHT22;53568;52.164;4.472;2024-02-21T09:10:20;11.22;78.90
66670;DHT22;53568;52.164;4.472;2024-02-21T09:12:46;11.22;78.44
66670;DHT22;53568;52.164;4.472;2024-02-21T09:15:13;11.24;78.36
66670;DHT22;53568;52.164;4.472;2024-02-21T09:17:38;11.17;78.35
66670;DHT22;53568;52.164;4.472;2024-02-21T09:20:05;11.20;78.30
66670;DHT22;53568;52.164;4.472;2024-02-21T09:22:31;11.13;78.63
66670;DHT22;53568;52.164;4.472;2024-02-21T09:25:00;11.19;78.45
66670;DHT22;53568;52.164;4.472;2024-02-21T09:27:26;11.24;78.22
66670;DHT22;53568;52.164;4.472;2024-02-21T09:29:51;11.23;78.54
66670;DHT22;53568;52.164;4.472;2024-02-21T09:32:18;11.14;78.25
66670;DHT22;53568;52.164;4.472;2024-02-21T09:34:44;11.33;78.03
66670;DHT22;53568;52.164;4.472;2024-02-21T09:37:10;11.34;77.88
66670;DHT22;53568;52.164;4.472;2024-02-21T09:39:36;11.34;77.89
66670;DHT22;53568;52.164;4.472;2024-02-21T09:42:12;11.38;77.93
66670;DHT22;53568;52.164;4.472;2024-02-21T09:44:38;11.33;77.84
66670;DHT22;53568;52.164;4.472;2024-02-21T09:47:07;11.26;78.12
66670;DHT22;53568;52.164;4.472;2024-02-21T09:49:35;11.41;77.56
66670;DHT22;53568;52.164;4.472;2024-02-21T09:52:05;11.44;77.29
66670;DHT22;53568;52.164;4.472;2024-02-21T09:54:35;11.41;77.45
66670;DHT22;53568;52.164;4.472;2024-02-21T09:57:02;11.38;77.30
66670;DHT22;53568;52.164;4.472;2024-02-21T09:59:31;11.43;76.81
66670;DHT22;53568;52.164;4.472;2024-02-21T10:01:56;11.31;76.84
66670;DHT22;53568;52.164;4.472;2024-02-21T10:04:23;11.38;77.08
66670;DHT22;53568;52.164;4.472;2024-02-21T10:06:48;11.51;76.71
66670;DHT22;53568;52.164;4.472;2024-02-21T10:09:34;11.46;76.71
66670;DHT22;53568;52.164;4.472;2024-02-21T10:12:10;11.47;76.57
66670;DHT22;53568;52.164;4.472;2024-02-21T10:14:37;11.50;76.65
66670;DHT22;53568;52.164;4.472;2024-02-21T10:17:03;11.51;76.54
66670;DHT22;53568;52.164;4.472;2024-02-21T10:19:30;11.58;76.67
66670;DHT22;53568;52.164;4.472;2024-02-21T10:22:04;11.64;76.24
66670;DHT22;53568;52.164;4.472;2024-02-21T10:24:31;11.56;76.62
66670;DHT22;53568;52.164;4.472;2024-02-21T10:27:05;11.66;76.47
66670;DHT22;53568;52.164;4.472;2024-02-21T10:29:34;11.67;76.38
66670;DHT22;53568;52.164;4.472;2024-02-21T10:32:09;11.71;75.83
66670;DHT22;53568;52.164;4.472;2024-02-21T10:34:35;11.66;75.91
66670;DHT22;53568;52.164;4.472;2024-02-21T10:37:08;11.58;76.22
66670;DHT22;53568;52.164;4.472;2024-02-21T10:39:38;11.54;76.02
66670;DHT22;53568;52.164;4.472;2024-02-21T10:42:04;11.50;76.07
66670;DHT22;53568;52.164;4.472;2024-02-21T10:44:37;11.37;76.56
66670;DHT22;53568;52.164;4.472;2024-02-21T10:47:08;11.43;76.39
66670;DHT22;53568;52.164;4.472;2024-02-21T10:49:39;11.47;76.22
66670;DHT22;53568;52.164;4.472;2024-02-21T10:52:19;11.48;76.13
66670;DHT22;53568;52.164;4.472;2024-02-21T10:55:03;11.38;76.03
66670;DHT22;53568;52.164;4.472;2024-02-21T10:57:31;11.23;76.39
66670;DHT22;53568;52.164;4.472;2024-02-21T10:59:58;11.19;76.41
66670;DHT22;53568;52.164;4.472;2024-02-21T11:02:26;11.20;76.54
66670;DHT22;53568;52.164;4.472;2024-02-21T11:04:55;11.14;76.65
66670;DHT22;53568;52.164;4.472;2024-02-21T11:07:21;11.13;76.49
66670;DHT22;53568;52.164;4.472;2024-02-21T11:09:52;11.16;76.73
66670;DHT22;53568;52.164;4.472;2024-02-21T11:12:21;11.24;76.46
66670;DHT22;53568;52.164;4.472;2024-02-21T11:14:47;11.34;76.15
66670;DHT22;53568;52.164;4.472;2024-02-21T11:17:17;11.38;76.06
66670;DHT22;53568;52.164;4.472;2024-02-21T11:19:43;11.38;75.70
66670;DHT22;53568;52.164;4.472;2024-02-21T11:22:18;11.28;76.35
66670;DHT22;53568;52.164;4.472;2024-02-21T11:24:45;11.40;75.90
66670;DHT22;53568;52.164;4.472;2024-02-21T11:27:13;11.33;75.97
66670;DHT22;53568;52.164;4.472;2024-02-21T11:30:11;11.41;75.89
66670;DHT22;53568;52.164;4.472;2024-02-21T11:32:37;11.43;75.92
66670;DHT22;53568;52.164;4.472;2024-02-21T11:35:03;11.50;75.72
66670;DHT22;53568;52.164;4.472;2024-02-21T11:37:32;11.56;75.33
66670;DHT22;53568;52.164;4.472;2024-02-21T11:40:04;11.51;75.57
66670;DHT22;53568;52.164;4.472;2024-02-21T11:42:32;11.64;75.52
66670;DHT22;53568;52.164;4.472;2024-02-21T11:44:59;11.74;74.65
66670;DHT22;53568;52.164;4.472;2024-02-21T11:47:28;11.77;74.16
66670;DHT22;53568;52.164;4.472;2024-02-21T11:49:54;11.74;74.23
66670;DHT22;53568;52.164;4.472;2024-02-21T11:52:24;11.74;74.32
66670;DHT22;53568;52.164;4.472;2024-02-21T11:54:54;11.85;73.79
66670;DHT22;53568;52.164;4.472;2024-02-21T11:57:22;11.82;73.82
66670;DHT22;53568;52.164;4.472;2024-02-21T11:59:47;11.82;73.77
66670;DHT22;53568;52.164;4.472;2024-02-21T12:02:14;11.71;73.93
66670;DHT22;53568;52.164;4.472;2024-02-21T12:04:41;11.75;73.79
66670;DHT22;53568;52.164;4.472;2024-02-21T12:07:07;11.78;73.58
66670;DHT22;53568;52.164;4.472;2024-02-21T12:09:34;11.97;73.35
66670;DHT22;53568;52.164;4.472;2024-02-21T12:12:02;11.98;73.22
66670;DHT22;53568;52.164;4.472;2024-02-21T12:14:29;11.85;73.32
66670;DHT22;53568;52.164;4.472;2024-02-21T12:16:56;11.82;73.61
66670;DHT22;53568;52.164;4.472;2024-02-21T12:19:22;11.75;73.40
66670;DHT22;53568;52.164;4.472;2024-02-21T12:21:51;11.63;74.06
66670;DHT22;53568;52.164;4.472;2024-02-21T12:24:27;11.78;73.60
66670;DHT22;53568;52.164;4.472;2024-02-21T12:26:54;11.78;73.31
66670;DHT22;53568;52.164;4.472;2024-02-21T12:29:21;11.80;73.26
66670;DHT22;53568;52.164;4.472;2024-02-21T12:31:47;11.77;73.21
66670;DHT22;53568;52.164;4.472;2024-02-21T12:34:13;11.80;73.47
66670;DHT22;53568;52.164;4.472;2024-02-21T12:36:43;11.74;73.72
66670;DHT22;53568;52.164;4.472;2024-02-21T12:39:12;11.68;73.81
66670;DHT22;53568;52.164;4.472;2024-02-21T12:41:37;11.71;74.08
66670;DHT22;53568;52.164;4.472;2024-02-21T12:44:07;11.71;74.10
66670;DHT22;53568;52.164;4.472;2024-02-21T12:46:36;11.58;74.38
66670;DHT22;53568;52.164;4.472;2024-02-21T12:49:03;11.58;74.64
66670;DHT22;53568;52.164;4.472;2024-02-21T12:51:29;11.47;74.87
66670;DHT22;53568;52.164;4.472;2024-02-21T12:53:56;11.40;75.37
66670;DHT22;53568;52.164;4.472;2024-02-21T12:56:21;11.47;75.47
66670;DHT22;53568;52.164;4.472;2024-02-21T12:58:47;11.46;75.52
66670;DHT22;53568;52.164;4.472;2024-02-21T13:01:13;11.54;75.17
66670;DHT22;53568;52.164;4.472;2024-02-21T13:03:38;11.60;74.99
66670;DHT22;53568;52.164;4.472;2024-02-21T13:06:05;11.57;75.05
66670;DHT22;53568;52.164;4.472;2024-02-21T13:08:30;11.51;75.23
66670;DHT22;53568;52.164;4.472;2024-02-21T13:10:56;11.50;75.20
66670;DHT22;53568;52.164;4.472;2024-02-21T13:13:22;11.34;75.79
66670;DHT22;53568;52.164;4.472;2024-02-21T13:15:47;11.36;75.69
66670;DHT22;53568;52.164;4.472;2024-02-21T13:18:13;11.40;75.95
66670;DHT22;53568;52.164;4.472;2024-02-21T13:20:38;11.37;75.80
66670;DHT22;53568;52.164;4.472;2024-02-21T13:23:04;11.46;75.87
66670;DHT22;53568;52.164;4.472;2024-02-21T13:25:29;11.48;75.71
66670;DHT22;53568;52.164;4.472;2024-02-21T13:27:55;11.51;75.75
66670;DHT22;53568;52.164;4.472;2024-02-21T13:30:22;11.40;75.81
66670;DHT22;53568;52.164;4.472;2024-02-21T13:32:48;11.41;76.17
66670;DHT22;53568;52.164;4.472;2024-02-21T13:35:14;11.31;75.86
66670;DHT22;53568;52.164;4.472;2024-02-21T13:37:40;11.34;75.97
66670;DHT22;53568;52.164;4.472;2024-02-21T13:40:07;11.36;75.89
66670;DHT22;53568;52.164;4.472;2024-02-21T13:42:36;11.31;76.04
66670;DHT22;53568;52.164;4.472;2024-02-21T13:45:03;11.36;75.93
66670;DHT22;53568;52.164;4.472;2024-02-21T13:47:30;11.40;76.11
66670;DHT22;53568;52.164;4.472;2024-02-21T13:49:56;11.34;76.60
66670;DHT22;53568;52.164;4.472;2024-02-21T13:52:22;11.23;76.64
66670;DHT22;53568;52.164;4.472;2024-02-21T13:54:48;11.28;77.47
66670;DHT22;53568;52.164;4.472;2024-02-21T13:57:13;11.40;77.23
66670;DHT22;53568;52.164;4.472;2024-02-21T13:59:40;11.40;77.34
66670;DHT22;53568;52.164;4.472;2024-02-21T14:02:05;11.44;77.76
66670;DHT22;53568;52.164;4.472;2024-02-21T14:04:34;11.36;77.74
66670;DHT22;53568;52.164;4.472;2024-02-21T14:07:01;11.23;78.22
66670;DHT22;53568;52.164;4.472;2024-02-21T14:09:27;11.37;78.21
66670;DHT22;53568;52.164;4.472;2024-02-21T14:11:55;11.26;78.50
66670;DHT22;53568;52.164;4.472;2024-02-21T14:14:20;11.31;78.63
66670;DHT22;53568;52.164;4.472;2024-02-21T14:16:46;11.20;78.61
66670;DHT22;53568;52.164;4.472;2024-02-21T14:19:14;11.03;79.39
66670;DHT22;53568;52.164;4.472;2024-02-21T14:21:40;11.02;79.16
66670;DHT22;53568;52.164;4.472;2024-02-21T14:24:06;11.00;79.43
66670;DHT22;53568;52.164;4.472;2024-02-21T14:26:32;11.03;79.42
66670;DHT22;53568;52.164;4.472;2024-02-21T14:28:58;10.99;79.75
66670;DHT22;53568;52.164;4.472;2024-02-21T14:31:23;10.95;79.83
66670;DHT22;53568;52.164;4.472;2024-02-21T14:33:50;10.92;79.95
66670;DHT22;53568;52.164;4.472;2024-02-21T14:36:16;10.79;80.52
66670;DHT22;53568;52.164;4.472;2024-02-21T14:38:42;10.86;80.30
66670;DHT22;53568;52.164;4.472;2024-02-21T14:41:08;10.82;80.46
66670;DHT22;53568;52.164;4.472;2024-02-21T14:43:34;10.75;80.92
66670;DHT22;53568;52.164;4.472;2024-02-21T14:46:00;10.76;81.34
66670;DHT22;53568;52.164;4.472;2024-02-21T14:48:30;10.72;81.49
66670;DHT22;53568;52.164;4.472;2024-02-21T14:50:55;10.80;81.42
66670;DHT22;53568;52.164;4.472;2024-02-21T14:53:21;10.65;81.68
66670;DHT22;53568;52.164;4.472;2024-02-21T14:55:46;10.69;81.66
66670;DHT22;53568;52.164;4.472;2024-02-21T14:58:11;10.65;81.87
66670;DHT22;53568;52.164;4.472;2024-02-21T15:00:37;10.60;81.87
66670;DHT22;53568;52.164;4.472;2024-02-21T15:03:04;10.53;82.37
66670;DHT22;53568;52.164;4.472;2024-02-21T15:05:29;10.53;82.44
66670;DHT22;53568;52.164;4.472;2024-02-21T15:07:58;10.59;82.48
66670;DHT22;53568;52.164;4.472;2024-02-21T15:10:24;10.59;82.31
66670;DHT22;53568;52.164;4.472;2024-02-21T15:12:49;10.58;82.64
66670;DHT22;53568;52.164;4.472;2024-02-21T15:15:15;10.65;82.32
66670;DHT22;53568;52.164;4.472;2024-02-21T15:17:42;10.55;82.55
66670;DHT22;53568;52.164;4.472;2024-02-21T15:20:08;10.48;82.89
66670;DHT22;53568;52.164;4.472;2024-02-21T15:22:34;10.50;83.18
66670;DHT22;53568;52.164;4.472;2024-02-21T15:25:01;10.41;83.62
66670;DHT22;53568;52.164;4.472;2024-02-21T15:27:27;10.55;83.24